createdAt,value
2019-03-02T00:03:11.684Z,85.40
2019-03-02T00:08:26.802Z,84.80
2019-03-02T00:13:31.625Z,82.70
2019-03-02T00:18:36.619Z,83.90
2019-03-02T00:23:41.405Z,83.30
2019-03-02T00:28:46.366Z,84.30
2019-03-02T00:33:53.708Z,84.60
2019-03-02T00:38:58.676Z,84.70
2019-03-02T00:44:04.629Z,84.10
2019-03-02T00:49:28.088Z,83.50
2019-03-02T00:54:33.060Z,84.80
2019-03-02T00:59:39.410Z,83.10
2019-03-02T01:04:57.875Z,81.10
2019-03-02T01:10:02.045Z,81.20
2019-03-02T01:15:09.436Z,82.20
2019-03-02T01:20:14.485Z,81.70
2019-03-02T01:25:19.922Z,79.90
2019-03-02T01:30:26.645Z,80.80
2019-03-02T01:35:32.501Z,80.80
2019-03-02T01:40:37.835Z,79.00
2019-03-02T01:45:44.237Z,79.90
2019-03-02T01:50:48.990Z,80.30
2019-03-02T01:55:53.081Z,81.70
2019-03-02T02:00:56.558Z,81.60
2019-03-02T02:06:03.794Z,82.30
2019-03-02T02:11:07.604Z,82.00
2019-03-02T02:16:10.900Z,82.90
2019-03-02T02:21:14.187Z,83.30
2019-03-02T02:26:17.504Z,83.10
2019-03-02T02:31:21.046Z,83.30
2019-03-02T02:36:24.633Z,82.90
2019-03-02T02:41:28.744Z,82.50
2019-03-02T02:46:34.366Z,83.50
2019-03-02T02:51:38.735Z,81.80
2019-03-02T02:56:42.758Z,81.50
2019-03-02T03:01:47.077Z,82.60
2019-03-02T03:06:51.149Z,80.40
2019-03-02T03:11:55.216Z,76.50
2019-03-02T03:16:59.315Z,77.70
2019-03-02T03:22:07.551Z,78.70
2019-03-02T03:27:13.272Z,78.90
2019-03-02T03:32:16.432Z,79.30
2019-03-02T03:37:22.699Z,77.70
2019-03-02T03:42:35.293Z,77.50
